Time;durP1;ratioP1;P1;durP2;ratioP2;P2;SDS_P1;SDS_P2;PMS_P1;PMS_P2;Temp;Humidity;BMP_temperature;BMP_pressure;BME280_temperature;BME280_humidity;BME280_pressure;Samples;Min_cycle;Max_cycle;Signal;HPM_P1;HPM_P2
2022/04/13 00:07:40;;;;;;;7.95;4.28;;;;;;;12.58;88.36;100030.94;21008270;28;20090;-69
2022/04/13 00:17:41;;;;;;;7.43;3.83;;;;;;;12.59;87.52;100043.16;21014448;28;20113;-69
2022/04/13 00:27:43;;;;;;;9.10;4.30;;;;;;;12.55;88.79;100057.31;21008737;28;20056;-69
2022/04/13 00:37:44;;;;;;;9.45;5.00;;;;;;;12.41;91.61;100053.34;20958242;28;20043;-69
2022/04/13 00:47:46;;;;;;;9.73;4.47;;;;;;;12.36;91.83;100050.88;20955802;28;20061;-69
2022/04/13 00:57:49;;;;;;;8.07;4.07;;;;;;;12.31;91.03;100057.97;20951281;28;20095;-69
2022/04/13 01:07:51;;;;;;;7.80;4.10;;;;;;;12.35;90.84;100053.53;20950137;28;20049;-69
2022/04/13 01:17:53;;;;;;;7.53;4.35;;;;;;;12.33;91.89;100077.19;20950025;28;20052;-69
2022/04/13 01:27:55;;;;;;;8.40;4.15;;;;;;;12.35;91.96;100072.75;20950420;28;20098;-69
2022/04/13 01:37:56;;;;;;;8.68;4.25;;;;;;;12.39;91.91;100081.41;20949184;28;20040;-69
2022/04/13 01:47:58;;;;;;;7.15;4.10;;;;;;;12.28;92.91;100094.84;20947481;28;20094;-69
2022/04/13 01:57:59;;;;;;;12.57;5.30;;;;;;;12.20;93.25;100097.66;20946893;28;20110;-70
2022/04/13 02:08:01;;;;;;;12.52;4.97;;;;;;;12.03;93.17;100103.38;20941363;28;20056;-70
2022/04/13 02:18:03;;;;;;;9.32;4.45;;;;;;;11.84;93.46;100109.16;20945133;28;20049;-70
2022/04/13 02:28:06;;;;;;;9.23;4.63;;;;;;;11.71;93.49;100100.69;20945931;28;20472;-70
2022/04/13 02:38:08;;;;;;;7.78;4.00;;;;;;;11.62;95.11;100099.16;20944420;28;20048;-70
2022/04/13 02:48:10;;;;;;;7.57;4.45;;;;;;;11.47;95.84;100094.28;20943115;28;20048;-70
2022/04/13 02:58:11;;;;;;;9.40;4.40;;;;;;;11.37;96.12;100104.13;20943048;28;20048;-70
2022/04/13 03:08:13;;;;;;;9.68;4.40;;;;;;;11.03;97.28;100097.06;20942425;28;20049;-70
2022/04/13 03:18:14;;;;;;;8.23;4.53;;;;;;;10.72;99.42;100099.47;20942236;28;20049;-70
2022/04/13 03:28:16;;;;;;;7.35;4.18;;;;;;;10.63;100.00;100110.13;20940413;28;20061;-69
2022/04/13 03:38:17;;;;;;;8.27;4.35;;;;;;;10.59;100.00;100118.06;20937859;28;20052;-70
2022/04/13 03:48:19;;;;;;;9.38;4.38;;;;;;;10.35;100.00;100120.31;20941991;28;20056;-70
2022/04/13 03:58:21;;;;;;;10.68;4.97;;;;;;;10.21;100.00;100117.91;20940799;28;20049;-70
2022/04/13 04:08:25;;;;;;;8.70;4.68;;;;;;;10.11;100.00;100115.47;20943950;28;20075;-70
2022/04/13 04:18:27;;;;;;;9.90;4.80;;;;;;;10.25;100.00;100110.88;20956083;28;20498;-70
2022/04/13 04:28:29;;;;;;;7.93;4.68;;;;;;;10.34;100.00;100118.56;20954707;28;20109;-70
2022/04/13 04:38:32;;;;;;;11.85;4.97;;;;;;;10.18;100.00;100115.34;20951452;28;20083;-68
2022/04/13 04:48:33;;;;;;;8.25;5.10;;;;;;;10.11;100.00;100132.06;20951390;28;20049;-69
2022/04/13 04:58:35;;;;;;;11.80;5.50;;;;;;;10.10;100.00;100134.69;20951709;28;20423;-70
2022/04/13 05:08:36;;;;;;;9.23;5.28;;;;;;;10.26;100.00;100133.56;20951593;28;20048;-70
2022/04/13 05:18:38;;;;;;;13.25;5.35;;;;;;;10.17;100.00;100157.25;20950840;28;20682;-70
2022/04/13 05:28:40;;;;;;;15.98;5.30;;;;;;;10.03;100.00;100150.50;20950444;28;20058;-69
2022/04/13 05:38:42;;;;;;;11.52;5.25;;;;;;;10.19;100.00;100160.69;20947570;28;20041;-68
2022/04/13 05:48:44;;;;;;;10.85;5.45;;;;;;;10.53;100.00;100187.97;20947059;28;20726;-68
2022/04/13 05:58:45;;;;;;;11.18;6.10;;;;;;;11.21;99.55;100191.84;20946255;28;20099;-69
2022/04/13 06:08:47;;;;;;;13.80;6.80;;;;;;;11.79;96.22;100182.69;20944946;28;20045;-69
2022/04/13 06:18:48;;;;;;;10.48;5.65;;;;;;;12.09;95.10;100198.59;20949284;28;20052;-69
2022/04/13 06:28:51;;;;;;;15.00;7.57;;;;;;;12.22;94.39;100206.13;20942006;28;20044;-69
2022/04/13 06:38:54;;;;;;;10.65;5.28;;;;;;;12.65;87.33;100206.72;20916775;28;20045;-69
2022/04/13 06:48:56;;;;;;;9.00;4.88;;;;;;;12.86;85.19;100214.03;20904906;28;20132;-69
2022/04/13 06:58:58;;;;;;;12.55;5.43;;;;;;;13.25;80.84;100226.97;20938385;28;20110;-69
2022/04/13 07:09:00;;;;;;;10.18;4.65;;;;;;;13.63;78.03;100238.97;20930862;28;20182;-67
2022/04/13 07:19:01;;;;;;;8.90;4.35;;;;;;;14.03;76.88;100249.09;20932309;28;20106;-67
2022/04/13 07:29:03;;;;;;;11.63;5.65;;;;;;;14.24;80.12;100251.94;20930507;28;20067;-67
2022/04/13 07:39:04;;;;;;;9.52;4.97;;;;;;;14.60;78.36;100261.25;20932191;28;20067;-67
2022/04/13 07:49:06;;;;;;;12.88;6.70;;;;;;;14.82;83.78;100260.53;20948929;28;20045;-67
2022/04/13 07:59:08;;;;;;;11.10;6.32;;;;;;;14.92;81.93;100276.88;20950744;28;20508;-67
2022/04/13 08:09:09;;;;;;;13.27;6.20;;;;;;;15.07;74.15;100284.22;20947722;28;20208;-66
2022/04/13 08:19:11;;;;;;;8.07;5.00;;;;;;;15.26;73.65;100292.34;20943388;28;20048;-67
2022/04/13 08:29:12;;;;;;;8.40;4.82;;;;;;;15.48;72.31;100292.41;20943874;28;20049;-67
2022/04/13 08:39:14;;;;;;;8.65;4.25;;;;;;;15.92;69.12;100293.34;20942129;28;20156;-67
2022/04/13 08:49:17;;;;;;;10.40;4.18;;;;;;;16.48;65.85;100292.84;20941726;28;20049;-67
2022/04/13 09:00:08;;;;;;;10.32;4.28;;;;;;;16.85;60.72;100288.66;20942376;28;20056;-67
2022/04/13 09:10:22;;;;;;;12.97;3.83;;;;;;;17.42;56.11;100290.50;20940687;28;20045;-67
2022/04/13 09:20:23;;;;;;;14.27;3.63;;;;;;;17.56;53.67;100292.50;20940882;28;20110;-67
2022/04/13 09:30:26;;;;;;;8.23;3.30;;;;;;;17.92;52.91;100287.31;20939529;28;20041;-67
2022/04/13 09:40:31;;;;;;;7.53;3.25;;;;;;;18.45;50.60;100296.22;20940587;28;20057;-67
2022/04/13 09:50:33;;;;;;;6.47;2.38;;;;;;;18.66;47.85;100281.03;20939757;28;20045;-67
2022/04/13 10:00:36;;;;;;;9.85;2.85;;;;;;;19.06;46.32;100279.81;20937976;28;20064;-67
2022/04/13 10:10:43;;;;;;;5.95;2.20;;;;;;;19.30;43.73;100274.16;20940892;28;20041;-67
2022/04/13 10:20:46;;;;;;;7.22;2.38;;;;;;;19.77;44.87;100262.75;20938757;28;20048;-68
2022/04/13 10:30:48;;;;;;;6.28;2.00;;;;;;;20.08;43.24;100257.44;20938323;28;20040;-68
2022/04/13 10:40:52;;;;;;;6.07;2.13;;;;;;;20.20;44.15;100248.75;20935331;28;20048;-68
2022/04/13 10:50:55;;;;;;;7.28;2.63;;;;;;;20.42;43.81;100245.69;20934303;28;20052;-67
2022/04/13 11:01:03;;;;;;;6.38;2.13;;;;;;;20.60;41.17;100238.47;20933116;28;20673;-67
2022/04/13 11:11:05;;;;;;;6.82;2.17;;;;;;;20.77;41.18;100242.75;20932480;28;20045;-68
2022/04/13 11:21:08;;;;;;;9.18;2.30;;;;;;;21.18;40.23;100236.72;20933247;28;20061;-67
2022/04/13 11:31:12;;;;;;;9.30;2.23;;;;;;;21.32;40.36;100233.19;20933655;28;20052;-67
2022/04/13 11:41:14;;;;;;;6.70;1.93;;;;;;;21.36;40.02;100218.72;20934287;28;20060;-67
2022/04/13 11:51:30;;;;;;;6.05;2.10;;;;;;;21.42;39.22;100215.69;20933422;28;20401;-67
2022/04/13 12:01:52;;;;;;;8.23;2.10;;;;;;;21.61;38.35;100205.56;20933606;28;20049;-67
2022/04/13 12:11:55;;;;;;;6.63;2.10;;;;;;;21.93;38.59;100207.94;20930425;28;20577;-67
2022/04/13 12:21:56;;;;;;;8.85;2.20;;;;;;;22.21;38.10;100207.00;20931063;28;20053;-67
2022/04/13 12:31:58;;;;;;;9.63;2.28;;;;;;;22.09;40.72;100192.66;20940324;28;20128;-68
2022/04/13 12:42:01;;;;;;;10.90;2.17;;;;;;;22.28;38.16;100190.47;20946586;28;20053;-67
2022/04/13 12:52:04;;;;;;;20.45;6.90;;;;;;;22.45;37.48;100189.31;20946536;28;20040;-67
2022/04/13 13:02:05;;;;;;;7.93;2.30;;;;;;;22.34;38.04;100191.88;20947833;28;20492;-68
2022/04/13 13:12:13;;;;;;;6.47;2.10;;;;;;;22.13;38.52;100178.16;20944288;28;20083;-69
2022/04/13 13:22:23;;;;;;;5.43;1.92;;;;;;;22.71;38.47;100160.84;20939586;28;20049;-69
2022/04/13 13:32:27;;;;;;;8.82;1.90;;;;;;;22.71;37.97;100160.84;20938788;28;20491;-70
2022/04/13 13:42:43;;;;;;;6.45;2.00;;;;;;;22.88;37.88;100148.13;20940479;28;20076;-70
2022/04/13 13:52:44;;;;;;;7.22;2.15;;;;;;;23.09;36.35;100151.94;20938724;28;20048;-71
2022/04/13 14:02:52;;;;;;;9.88;2.35;;;;;;;22.86;36.42;100152.72;20940192;28;20505;-70
2022/04/13 14:12:54;;;;;;;11.35;1.83;;;;;;;22.86;36.10;100152.72;20940795;28;20444;-70
2022/04/13 14:22:56;;;;;;;6.97;2.33;;;;;;;23.03;37.05;100139.03;20937139;28;20158;-70
2022/04/13 14:32:58;;;;;;;9.95;2.42;;;;;;;23.12;36.35;100140.19;20934736;28;20051;-69
2022/04/13 14:43:00;;;;;;;9.13;2.38;;;;;;;23.15;35.94;100148.84;20933692;28;20049;-69
2022/04/13 14:53:02;;;;;;;11.75;2.47;;;;;;;23.29;36.30;100140.69;20934463;28;20044;-69
2022/04/13 15:03:04;;;;;;;7.95;2.28;;;;;;;23.24;35.72;100144.66;20933410;28;20057;-69
2022/04/13 15:13:06;;;;;;;18.20;3.60;;;;;;;23.36;36.48;100140.25;20935689;28;20584;-69
2022/04/13 15:23:07;;;;;;;12.07;3.13;;;;;;;23.22;35.92;100143.91;20933831;28;20063;-69
2022/04/13 15:33:09;;;;;;;10.60;3.10;;;;;;;23.21;36.27;100142.22;20931995;28;20049;-69
2022/04/13 15:43:10;;;;;;;9.48;4.40;;;;;;;23.08;37.12;100141.38;20931275;28;20045;-68
2022/04/13 15:53:16;;;;;;;8.30;4.05;;;;;;;22.78;38.34;100153.25;20932847;28;20178;-69
2022/04/13 16:03:17;;;;;;;9.45;4.18;;;;;;;22.77;38.47;100155.06;20936467;28;20052;-68
2022/04/13 16:13:23;;;;;;;12.52;4.60;;;;;;;22.84;37.16;100165.31;20948494;28;20045;-68
2022/04/13 16:23:24;;;;;;;9.80;4.60;;;;;;;22.58;37.59;100170.66;20947556;28;20056;-68
2022/04/13 16:33:26;;;;;;;13.02;3.92;;;;;;;22.51;37.76;100174.69;20945071;28;20056;-68
2022/04/13 16:43:27;;;;;;;12.45;3.97;;;;;;;22.45;37.01;100170.66;20945334;28;20053;-68
2022/04/13 16:53:29;;;;;;;11.77;2.53;;;;;;;22.34;37.43;100183.03;20956664;28;20041;-67
2022/04/13 17:03:31;;;;;;;12.70;2.50;;;;;;;22.12;38.38;100189.78;20961108;28;20053;-67
2022/04/13 17:13:32;;;;;;;8.88;2.22;;;;;;;21.77;39.00;100189.44;20962694;28;20123;-68
2022/04/13 17:23:34;;;;;;;8.00;2.75;;;;;;;21.35;40.95;100183.25;20959746;28;20561;-67
2022/04/13 17:33:37;;;;;;;9.20;2.72;;;;;;;21.08;41.38;100193.84;20958262;28;20106;-67
2022/04/13 17:43:38;;;;;;;32.35;15.48;;;;;;;20.70;43.54;100197.06;20959563;28;20895;-67
2022/04/13 17:53:42;;;;;;;7.88;2.80;;;;;;;20.13;44.91;100194.22;20958157;28;20052;-68
2022/04/13 18:03:44;;;;;;;7.73;2.50;;;;;;;19.82;46.06;100203.09;20957373;28;20114;-67
2022/04/13 18:13:45;;;;;;;7.85;2.75;;;;;;;19.13;48.90;100211.38;20953845;28;20129;-67
2022/04/13 18:23:47;;;;;;;7.50;2.83;;;;;;;18.86;49.73;100221.66;20944106;28;20735;-67
2022/04/13 18:33:49;;;;;;;9.75;2.65;;;;;;;18.71;49.97;100229.47;20947932;28;20053;-67
2022/04/13 18:43:51;;;;;;;9.13;2.60;;;;;;;18.59;51.47;100226.56;20949582;28;20048;-67
2022/04/13 18:53:53;;;;;;;11.25;2.83;;;;;;;18.16;52.20;100239.38;20947852;28;20048;-68
2022/04/13 19:03:55;;;;;;;9.07;2.97;;;;;;;17.97;52.75;100239.41;20948766;28;20508;-66
2022/04/13 19:13:56;;;;;;;7.45;2.97;;;;;;;17.67;54.67;100261.09;20947561;28;20460;-66
2022/04/13 19:23:58;;;;;;;10.70;2.42;;;;;;;17.28;57.94;100268.22;20946702;28;20049;-66
2022/04/13 19:34:02;;;;;;;9.80;2.38;;;;;;;16.98;59.38;100286.34;20949809;28;20689;-66
2022/04/13 19:44:04;;;;;;;8.52;2.60;;;;;;;16.73;60.94;100302.41;20983959;28;20044;-65
2022/04/13 19:54:06;;;;;;;6.70;2.55;;;;;;;16.45;63.50;100321.19;20984050;28;20036;-65
2022/04/13 20:04:07;;;;;;;15.90;3.00;;;;;;;16.35;63.28;100323.34;20982819;28;20467;-67
2022/04/13 20:14:09;;;;;;;13.13;3.50;;;;;;;16.13;65.85;100329.47;20981176;28;20478;-67
2022/04/13 20:24:12;;;;;;;9.82;3.45;;;;;;;16.14;66.05;100339.13;20977702;28;20087;-67
2022/04/13 20:34:13;;;;;;;7.70;3.10;;;;;;;16.02;65.65;100350.16;20979907;28;20051;-66
2022/04/13 20:44:15;;;;;;;9.55;3.80;;;;;;;15.68;70.32;100360.31;20978341;28;20337;-65
2022/04/13 20:54:18;;;;;;;7.50;2.83;;;;;;;15.30;72.30;100362.53;20977810;28;20044;-67
2022/04/13 21:04:19;;;;;;;6.50;2.92;;;;;;;15.21;72.81;100366.34;20976471;28;20040;-66
2022/04/13 21:14:21;;;;;;;13.88;3.58;;;;;;;15.03;73.55;100359.94;20974428;28;20470;-66
2022/04/13 21:24:22;;;;;;;11.60;3.65;;;;;;;14.82;74.33;100371.22;20975536;28;20496;-66
2022/04/13 21:34:24;;;;;;;10.85;3.63;;;;;;;14.70;76.66;100366.34;20975162;28;20040;-66
2022/04/13 21:44:25;;;;;;;7.38;3.95;;;;;;;14.60;76.96;100377.19;20975251;28;20045;-67
2022/04/13 21:54:27;;;;;;;9.40;4.28;;;;;;;14.49;78.26;100379.31;20973209;28;20037;-66
2022/04/13 22:04:28;;;;;;;9.75;4.10;;;;;;;14.31;79.36;100390.41;20973058;28;20529;-66
2022/04/13 22:14:30;;;;;;;10.50;4.50;;;;;;;14.14;80.60;100392.72;20976149;28;20548;-67
2022/04/13 22:24:31;;;;;;;12.18;4.95;;;;;;;14.03;81.16;100403.53;20973880;28;20048;-67
2022/04/13 22:34:34;;;;;;;13.10;3.65;;;;;;;13.89;80.88;100405.72;20974370;28;20040;-68
2022/04/13 22:44:36;;;;;;;8.02;3.75;;;;;;;13.56;82.17;100421.59;20973416;28;20041;-67
2022/04/13 22:54:38;;;;;;;6.43;3.10;;;;;;;13.35;84.63;100415.13;20971003;28;20051;-67
2022/04/13 23:04:40;;;;;;;9.73;3.55;;;;;;;13.21;85.57;100425.09;20970288;28;20040;-66
2022/04/13 23:14:41;;;;;;;13.45;3.85;;;;;;;13.07;86.46;100423.69;20967872;28;20127;-68
2022/04/13 23:24:45;;;;;;;8.70;3.47;;;;;;;12.96;87.03;100420.47;20971304;28;20086;-67
2022/04/13 23:34:48;;;;;;;9.02;3.70;;;;;;;12.83;88.48;100424.31;20970623;28;20090;-68
2022/04/13 23:44:49;;;;;;;9.80;3.75;;;;;;;12.70;88.54;100422.91;20971766;28;20110;-67
2022/04/13 23:54:51;;;;;;;9.23;3.80;;;;;;;12.56;90.24;100417.97;20970583;28;20103;-67
